Time;durP1;ratioP1;P1;durP2;ratioP2;P2;SDS_P1;SDS_P2;PMS_P1;PMS_P2;Temp;Humidity;BMP_temperature;BMP_pressure;BME280_temperature;BME280_humidity;BME280_pressure;Samples;Min_cycle;Max_cycle;Signal;HPM_P1;HPM_P2
2021/03/03 00:00:06;;;;;;;13.90;7.33;;;1.80;99.90;;;2.63;100.00;99527.31;5008712;28;20967;-80
2021/03/03 00:02:34;;;;;;;12.43;7.27;;;1.60;99.90;;;2.58;100.00;99529.38;5007297;28;20467;-80
2021/03/03 00:05:02;;;;;;;12.67;6.83;;;1.60;99.90;;;2.61;100.00;99525.75;5001626;28;21030;-80
2021/03/03 00:07:29;;;;;;;17.63;8.37;;;1.60;99.90;;;2.60;100.00;99530.13;5005746;28;20478;-80
2021/03/03 00:09:57;;;;;;;14.57;8.10;;;1.60;99.90;;;2.52;100.00;99530.59;5005249;28;20474;-80
2021/03/03 00:12:25;;;;;;;15.27;8.47;;;1.50;99.90;;;2.47;100.00;99524.91;5005466;28;20544;-80
2021/03/03 00:14:53;;;;;;;14.00;8.03;;;1.50;99.90;;;2.54;100.00;99530.50;5000966;28;20486;-80
2021/03/03 00:17:21;;;;;;;13.27;6.97;;;1.60;99.90;;;2.53;100.00;99534.81;5007738;28;20493;-80
2021/03/03 00:19:48;;;;;;;11.53;7.03;;;1.50;99.90;;;2.58;100.00;99533.69;5005031;28;20517;-80
2021/03/03 00:22:16;;;;;;;17.20;8.27;;;1.60;99.90;;;2.61;100.00;99528.34;5007013;28;20517;-80
2021/03/03 00:24:43;;;;;;;15.30;7.87;;;1.60;99.90;;;2.54;100.00;99526.16;5008842;28;20455;-80
2021/03/03 00:27:11;;;;;;;18.87;7.70;;;1.50;99.90;;;2.45;100.00;99524.19;5007243;28;21360;-80
2021/03/03 00:29:39;;;;;;;18.80;7.37;;;1.40;99.90;;;2.38;100.00;99522.09;5006030;28;20458;-80
2021/03/03 00:32:06;;;;;;;14.40;7.30;;;1.40;99.90;;;2.42;100.00;99520.97;5003174;28;20983;-80
2021/03/03 00:34:34;;;;;;;26.57;7.80;;;1.40;99.90;;;2.33;100.00;99527.53;5006026;28;21030;-80
2021/03/03 00:37:02;;;;;;;23.23;7.60;;;1.40;99.90;;;2.35;100.00;99515.38;5005170;28;20502;-80
2021/03/03 00:39:31;;;;;;;20.00;7.40;;;1.40;99.90;;;2.47;100.00;99518.91;5006479;28;20884;-80
2021/03/03 00:41:58;;;;;;;13.50;7.70;;;1.50;99.90;;;2.44;100.00;99513.94;5005039;28;20459;-80
2021/03/03 00:44:26;;;;;;;14.37;7.30;;;1.50;99.90;;;2.34;100.00;99521.47;5006128;28;20525;-80
2021/03/03 00:46:54;;;;;;;13.00;7.10;;;1.40;99.90;;;2.34;100.00;99529.22;5002578;28;20462;-80
2021/03/03 00:49:22;;;;;;;16.43;7.83;;;1.40;99.90;;;2.45;100.00;99520.78;5005231;28;20487;-80
2021/03/03 00:51:49;;;;;;;14.93;7.80;;;1.50;99.90;;;2.54;100.00;99521.00;5006984;28;20477;-80
2021/03/03 00:54:17;;;;;;;12.13;6.53;;;1.60;99.90;;;2.51;100.00;99520.38;5004951;28;20463;-80
2021/03/03 00:56:44;;;;;;;13.47;7.50;;;1.60;99.90;;;2.30;100.00;99526.91;5006878;28;20502;-80
2021/03/03 00:59:12;;;;;;;14.47;7.03;;;1.30;99.90;;;2.23;100.00;99526.47;5004567;28;20980;-80
2021/03/03 01:01:40;;;;;;;18.00;7.30;;;1.20;99.90;;;2.21;100.00;99528.34;5006817;28;20477;-80
2021/03/03 01:04:08;;;;;;;15.10;7.67;;;1.20;99.90;;;2.14;100.00;99524.50;5004641;28;20494;-80
2021/03/03 01:06:36;;;;;;;14.63;7.20;;;1.20;99.90;;;2.18;100.00;99518.22;5007560;28;20459;-80
2021/03/03 01:09:04;;;;;;;13.40;7.60;;;1.20;99.90;;;2.31;100.00;99519.09;5005240;28;20466;-79
2021/03/03 01:11:32;;;;;;;17.63;8.70;;;1.30;99.90;;;2.28;100.00;99511.53;5005843;28;20513;-80
2021/03/03 01:13:59;;;;;;;14.07;7.40;;;1.30;99.90;;;2.22;100.00;99517.06;5005646;28;20513;-80
2021/03/03 01:16:27;;;;;;;13.90;8.33;;;1.20;99.90;;;2.09;100.00;99518.78;5002558;28;20491;-79
2021/03/03 01:18:55;;;;;;;12.27;7.50;;;1.10;99.90;;;2.11;100.00;99514.38;4999027;28;20468;-80
2021/03/03 01:21:23;;;;;;;18.97;8.50;;;1.10;99.90;;;2.18;100.00;99513.06;5005361;28;20471;-80
2021/03/03 01:23:51;;;;;;;14.07;6.73;;;1.20;99.90;;;2.28;100.00;99514.13;5005082;28;20918;-80
2021/03/03 01:26:18;;;;;;;29.73;8.17;;;1.30;99.90;;;2.30;100.00;99512.25;5006750;28;20823;-80
2021/03/03 01:28:46;;;;;;;16.97;8.00;;;1.30;99.90;;;2.17;100.00;99518.31;5005053;28;20455;-80
2021/03/03 01:31:13;;;;;;;11.70;7.60;;;1.20;99.90;;;2.10;100.00;99510.13;5006037;28;20525;-81
2021/03/03 01:33:41;;;;;;;14.90;7.67;;;1.10;99.90;;;2.20;100.00;99503.47;5004952;28;20805;-80
2021/03/03 01:36:08;;;;;;;15.30;7.33;;;1.20;99.90;;;2.13;100.00;99504.78;5005990;28;20494;-80
2021/03/03 01:38:37;;;;;;;16.50;8.47;;;1.20;99.90;;;2.00;100.00;99503.91;5002787;28;20533;-80
2021/03/03 01:41:04;;;;;;;19.33;7.90;;;1.10;99.90;;;2.07;100.00;99502.59;5004320;28;20459;-80
2021/03/03 01:43:32;;;;;;;11.67;7.50;;;1.10;99.90;;;2.18;100.00;99507.91;5007131;28;20455;-80
2021/03/03 01:46:00;;;;;;;17.07;6.90;;;1.20;99.90;;;2.24;100.00;99499.75;5006100;28;20474;-80
2021/03/03 01:48:28;;;;;;;13.93;8.13;;;1.30;99.90;;;2.25;100.00;99501.44;5004470;28;21025;-80
2021/03/03 01:50:56;;;;;;;20.57;7.23;;;1.40;99.90;;;2.17;100.00;99501.09;5005563;28;20471;-80
2021/03/03 01:53:24;;;;;;;24.50;8.90;;;1.20;99.90;;;2.18;100.00;99500.16;5004678;28;20989;-80
2021/03/03 01:55:55;;;;;;;20.17;7.53;;;1.20;99.90;;;2.21;100.00;99499.97;5006095;28;20513;-80
2021/03/03 01:58:23;;;;;;;13.70;7.83;;;1.20;99.90;;;2.16;100.00;99503.75;5003540;28;20483;-80
2021/03/03 02:00:51;;;;;;;14.00;8.30;;;1.20;99.90;;;2.10;100.00;99504.16;5005304;28;20458;-80
2021/03/03 02:03:19;;;;;;;18.90;8.77;;;1.10;99.90;;;2.16;100.00;99509.75;5007522;28;20814;-80
2021/03/03 02:05:46;;;;;;;20.80;9.53;;;1.20;99.90;;;2.16;100.00;99514.06;5009199;28;20462;-80
2021/03/03 02:08:20;;;;;;;22.33;7.87;;;1.20;99.90;;;2.18;100.00;99510.50;5009870;28;20466;-79
2021/03/03 02:10:58;;;;;;;16.50;8.13;;;1.20;99.90;;;2.19;100.00;99500.97;5007396;28;20537;-80
2021/03/03 02:13:30;;;;;;;22.20;8.50;;;1.20;99.90;;;2.05;100.00;99507.00;5009667;28;20462;-80
2021/03/03 02:16:02;;;;;;;15.93;8.10;;;1.10;99.90;;;2.02;100.00;99502.88;5008700;28;20572;-80
2021/03/03 02:18:31;;;;;;;13.83;6.37;;;1.10;99.90;;;2.06;100.00;99497.53;5011354;28;20439;-80
2021/03/03 02:21:08;;;;;;;20.10;7.47;;;1.00;99.90;;;2.06;100.00;99500.09;5007703;28;20474;-80
2021/03/03 02:23:48;;;;;;;13.00;8.27;;;1.10;99.90;;;1.99;100.00;99497.91;5011405;28;20466;-80
2021/03/03 02:26:19;;;;;;;15.70;7.40;;;1.00;99.90;;;2.00;100.00;99493.59;5007960;28;20463;-80
2021/03/03 02:28:49;;;;;;;14.23;7.80;;;1.10;99.90;;;1.98;100.00;99490.25;5009517;28;20990;-80
2021/03/03 02:31:39;;;;;;;20.60;7.43;;;1.00;99.90;;;2.02;100.00;99492.56;5008595;28;20466;-80
2021/03/03 02:34:08;;;;;;;14.37;7.47;;;1.10;99.90;;;1.95;100.00;99487.88;5008068;28;20546;-80
2021/03/03 02:36:37;;;;;;;17.57;8.30;;;1.10;99.90;;;1.99;100.00;99491.94;5010360;28;20502;-80
2021/03/03 02:39:06;;;;;;;19.67;8.30;;;1.10;99.90;;;2.00;100.00;99486.69;5009114;28;20467;-80
2021/03/03 02:41:37;;;;;;;12.47;7.37;;;1.10;99.90;;;1.98;100.00;99474.78;5007861;28;20467;-80
2021/03/03 02:44:07;;;;;;;20.37;9.70;;;1.10;99.90;;;1.94;100.00;99481.09;5008257;28;20471;-80
2021/03/03 02:46:35;;;;;;;14.83;8.17;;;1.00;99.90;;;2.03;100.00;99478.75;5009565;28;20532;-80
2021/03/03 02:49:04;;;;;;;18.33;7.70;;;1.20;99.90;;;2.03;100.00;99472.75;5007824;28;20509;-80
2021/03/03 02:51:32;;;;;;;28.00;8.17;;;1.10;99.90;;;2.06;100.00;99469.16;5005343;28;20882;-80
2021/03/03 02:53:59;;;;;;;15.40;7.40;;;1.10;99.90;;;1.95;100.00;99469.84;5009181;28;20458;-80
2021/03/03 02:56:28;;;;;;;16.43;7.90;;;1.00;99.90;;;1.90;100.00;99471.91;5007101;28;20916;-80
2021/03/03 02:59:02;;;;;;;16.37;8.30;;;1.00;99.90;;;1.84;100.00;99470.50;5007410;28;20537;-80
2021/03/03 03:01:30;;;;;;;19.17;8.67;;;0.90;99.90;;;1.83;100.00;99468.03;5007171;28;20482;-80
2021/03/03 03:04:03;;;;;;;15.70;8.23;;;0.80;99.90;;;1.92;100.00;99468.28;5007413;28;20493;-80
2021/03/03 03:06:35;;;;;;;14.00;8.33;;;1.00;99.90;;;2.05;100.00;99460.56;5008752;28;20813;-80
2021/03/03 03:09:08;;;;;;;15.37;7.43;;;1.10;99.90;;;2.10;100.00;99458.53;5008464;28;20509;-80
2021/03/03 03:11:45;;;;;;;18.03;8.20;;;1.20;99.90;;;1.94;100.00;99450.94;5009277;28;20447;-80
2021/03/03 03:14:21;;;;;;;16.63;8.07;;;1.00;99.90;;;1.93;100.00;99461.38;5005692;28;20477;-80
2021/03/03 03:16:50;;;;;;;16.40;8.70;;;1.00;99.90;;;1.92;100.00;99451.97;5006797;28;20499;-80
2021/03/03 03:19:24;;;;;;;18.97;8.03;;;0.90;99.90;;;2.02;100.00;99446.13;5007357;28;20471;-80
2021/03/03 03:21:54;;;;;;;16.90;8.30;;;1.00;99.90;;;2.02;100.00;99445.31;5008504;28;20470;-80
2021/03/03 03:24:24;;;;;;;15.50;7.93;;;1.10;99.90;;;2.05;100.00;99444.31;5006624;28;20459;-81
2021/03/03 03:26:54;;;;;;;15.63;8.30;;;1.20;99.90;;;1.99;100.00;99437.75;5005992;28;20507;-80
2021/03/03 03:29:23;;;;;;;15.40;7.67;;;1.10;99.90;;;1.91;100.00;99445.16;5007054;28;21057;-80
2021/03/03 03:31:52;;;;;;;17.87;8.20;;;1.00;99.90;;;1.89;100.00;99447.03;5007167;28;20475;-80
2021/03/03 03:34:20;;;;;;;14.93;7.67;;;1.00;99.90;;;1.82;100.00;99448.34;5008513;28;20565;-80
2021/03/03 03:36:49;;;;;;;17.23;8.47;;;0.90;99.90;;;1.80;100.00;99443.28;5005382;28;20560;-80
2021/03/03 03:39:17;;;;;;;16.97;8.27;;;0.90;99.90;;;1.70;100.00;99444.78;5006852;28;20455;-80
2021/03/03 03:41:47;;;;;;;16.90;7.80;;;0.70;99.90;;;1.72;100.00;99447.28;5008115;28;20463;-80
2021/03/03 03:44:16;;;;;;;14.93;7.90;;;0.80;99.90;;;1.80;100.00;99450.19;5006163;28;20545;-80
2021/03/03 03:46:45;;;;;;;20.37;8.17;;;0.90;99.90;;;1.75;100.00;99452.22;5007589;28;20483;-80
2021/03/03 03:49:13;;;;;;;25.37;8.80;;;0.80;99.90;;;1.86;100.00;99452.38;5007240;28;20512;-80
2021/03/03 03:51:41;;;;;;;20.27;7.90;;;1.00;99.90;;;1.96;100.00;99445.72;5006239;28;20463;-80
2021/03/03 03:54:10;;;;;;;14.73;7.93;;;1.00;99.90;;;1.96;100.00;99440.53;5006589;28;20518;-80
2021/03/03 03:56:40;;;;;;;13.87;8.13;;;1.00;99.90;;;1.93;100.00;99435.59;5006309;28;20498;-80
2021/03/03 03:59:08;;;;;;;15.37;8.07;;;1.00;99.90;;;1.79;100.00;99441.63;5007154;28;20546;-79
2021/03/03 04:01:35;;;;;;;18.60;8.13;;;0.90;99.90;;;1.83;100.00;99444.84;5005907;28;20965;-80
2021/03/03 04:04:05;;;;;;;18.13;7.93;;;0.90;99.90;;;1.81;100.00;99449.25;5007874;28;20471;-80
2021/03/03 04:06:32;;;;;;;18.87;7.70;;;0.80;99.90;;;1.80;100.00;99450.19;5006578;28;20509;-80
2021/03/03 04:09:00;;;;;;;17.50;8.57;;;0.80;99.90;;;1.79;100.00;99458.84;5007724;28;20470;-80
2021/03/03 04:11:27;;;;;;;16.00;8.40;;;0.80;99.90;;;1.78;100.00;99459.75;5005698;28;20463;-80
2021/03/03 04:13:54;;;;;;;14.40;7.47;;;0.80;99.90;;;1.77;100.00;99458.13;5008146;28;20584;-79
2021/03/03 04:16:22;;;;;;;13.30;7.90;;;0.80;99.90;;;1.81;100.00;99462.16;5006877;28;20583;-80
2021/03/03 04:18:49;;;;;;;15.07;7.90;;;0.90;99.90;;;1.79;100.00;99470.00;5007314;28;20572;-80
2021/03/03 04:21:18;;;;;;;15.17;7.53;;;0.90;99.90;;;1.81;100.00;99467.31;5007290;28;20481;-80
2021/03/03 04:23:45;;;;;;;15.03;6.83;;;0.90;99.90;;;1.88;100.00;99473.72;5003720;28;20601;-80
2021/03/03 04:26:13;;;;;;;13.00;7.67;;;0.90;99.90;;;1.90;100.00;99471.91;5006610;28;20525;-80
2021/03/03 04:28:40;;;;;;;14.27;7.10;;;0.90;99.90;;;1.88;100.00;99473.72;5005839;28;21137;-80
2021/03/03 04:31:07;;;;;;;27.30;9.17;;;0.90;99.90;;;1.82;100.00;99474.94;5005903;28;20474;-80
2021/03/03 04:33:35;;;;;;;21.07;7.27;;;0.80;99.90;;;1.91;100.00;99470.94;5003648;28;20466;-80
2021/03/03 04:36:03;;;;;;;17.20;8.13;;;1.00;99.90;;;1.84;100.00;99467.94;5004442;28;20495;-80
2021/03/03 04:38:32;;;;;;;13.80;7.60;;;1.00;99.90;;;1.87;100.00;99467.78;5005973;28;20467;-79
2021/03/03 04:41:00;;;;;;;16.70;7.40;;;1.00;99.90;;;1.95;100.00;99457.78;5003608;28;20813;-80
2021/03/03 04:43:28;;;;;;;14.70;8.13;;;1.10;99.90;;;1.88;100.00;99463.41;5005168;28;20474;-80
2021/03/03 04:45:55;;;;;;;16.70;7.77;;;1.00;99.90;;;1.84;100.00;99464.56;5004543;28;20458;-80
2021/03/03 04:48:23;;;;;;;18.33;7.50;;;0.90;99.90;;;1.81;100.00;99467.31;5004027;28;20462;-78
2021/03/03 04:50:51;;;;;;;17.00;7.60;;;0.90;99.90;;;1.84;100.00;99465.34;5006193;28;20562;-80
2021/03/03 04:53:19;;;;;;;14.00;7.87;;;0.90;99.90;;;1.86;100.00;99465.28;5002584;28;20462;-80
2021/03/03 04:55:47;;;;;;;14.50;7.60;;;1.00;99.90;;;1.85;100.00;99455.88;5005410;28;20491;-81
2021/03/03 04:58:15;;;;;;;19.50;8.10;;;1.10;99.90;;;1.74;100.00;99455.72;5006892;28;20478;-80
2021/03/03 05:00:42;;;;;;;16.33;8.43;;;0.90;99.90;;;1.71;100.00;99456.75;5007757;28;20800;-80
2021/03/03 05:03:30;;;;;;;16.60;7.43;;;0.80;99.90;;;1.65;100.00;99457.13;5007138;28;20563;-80
2021/03/03 05:06:02;;;;;;;12.80;7.20;;;0.70;99.90;;;1.73;100.00;99457.50;5007707;28;20542;-80
2021/03/03 05:08:29;;;;;;;13.27;7.53;;;0.80;99.90;;;1.73;100.00;99459.25;5006649;28;20449;-80
2021/03/03 05:10:58;;;;;;;13.27;7.10;;;0.80;99.90;;;1.71;100.00;99455.91;5005783;28;20454;-80
2021/03/03 05:13:25;;;;;;;18.07;8.63;;;0.80;99.90;;;1.61;100.00;99455.69;4999734;28;20507;-80
2021/03/03 05:15:53;;;;;;;13.80;7.30;;;0.80;99.90;;;1.65;100.00;99464.03;5004762;28;20463;-80
2021/03/03 05:18:21;;;;;;;11.40;6.50;;;0.70;99.90;;;1.70;100.00;99456.88;5006989;28;20536;-80
2021/03/03 05:20:48;;;;;;;12.93;7.37;;;0.80;99.90;;;1.69;100.00;99468.09;5002223;28;20458;-80
2021/03/03 05:23:27;;;;;;;15.40;8.37;;;0.80;99.90;;;1.70;100.00;99452.50;5003857;28;20462;-80
2021/03/03 05:25:54;;;;;;;19.50;8.00;;;0.80;99.90;;;1.73;100.00;99459.25;5004625;28;21034;-80
2021/03/03 05:28:23;;;;;;;19.53;8.07;;;0.80;99.90;;;1.75;100.00;99454.81;5003116;28;21391;-80
2021/03/03 05:30:51;;;;;;;17.33;8.07;;;0.80;99.90;;;1.69;100.00;99447.47;5006433;28;20529;-80
2021/03/03 05:33:26;;;;;;;15.23;7.70;;;0.70;99.90;;;1.64;100.00;99446.91;5006304;28;20467;-79
2021/03/03 05:35:56;;;;;;;13.53;6.93;;;0.70;99.90;;;1.61;100.00;99447.94;5007028;28;20462;-79
2021/03/03 05:38:24;;;;;;;15.47;6.77;;;0.70;99.90;;;1.73;100.00;99447.19;5009399;28;20494;-80
2021/03/03 05:40:54;;;;;;;14.70;7.40;;;0.80;99.90;;;1.71;100.00;99435.28;5009830;28;20447;-79
2021/03/03 05:43:23;;;;;;;20.40;7.50;;;0.80;99.90;;;1.71;100.00;99436.13;5008587;28;20443;-79
2021/03/03 05:45:52;;;;;;;24.87;7.17;;;0.80;99.90;;;1.64;100.00;99434.03;5009278;28;20447;-79
2021/03/03 05:48:26;;;;;;;14.27;7.00;;;0.70;99.90;;;1.63;100.00;99440.13;5009197;28;20455;-80
2021/03/03 05:50:59;;;;;;;14.80;6.83;;;0.70;99.90;;;1.73;100.00;99431.72;5009236;28;20788;-80
2021/03/03 05:53:28;;;;;;;14.90;7.70;;;0.80;99.90;;;1.85;100.00;99432.66;5009284;28;20879;-79
2021/03/03 05:55:57;;;;;;;17.13;8.20;;;1.00;99.90;;;1.93;100.00;99425.28;5008778;28;20505;-79
2021/03/03 05:58:29;;;;;;;17.60;6.80;;;1.00;99.90;;;1.98;100.00;99420.63;5009111;28;21069;-80
2021/03/03 06:00:58;;;;;;;12.93;6.87;;;1.10;99.90;;;1.88;100.00;99427.31;5009000;28;20768;-79
2021/03/03 06:03:27;;;;;;;14.13;7.57;;;1.00;99.90;;;1.90;100.00;99428.06;5009074;28;20450;-79
2021/03/03 06:05:58;;;;;;;13.07;6.20;;;1.00;99.90;;;1.90;100.00;99426.31;5009434;28;20447;-79
2021/03/03 06:08:27;;;;;;;11.43;7.47;;;1.00;99.90;;;1.88;100.00;99432.47;5008939;28;20470;-80
2021/03/03 06:10:56;;;;;;;14.30;7.30;;;0.90;99.90;;;1.90;100.00;99422.91;5009368;28;20515;-79
2021/03/03 06:13:25;;;;;;;16.13;8.00;;;1.00;99.90;;;1.84;100.00;99425.88;5008442;28;20950;-80
2021/03/03 06:15:53;;;;;;;17.70;7.77;;;0.90;99.90;;;1.80;100.00;99420.09;5009560;28;20861;-80
2021/03/03 06:18:24;;;;;;;11.73;6.97;;;0.90;99.90;;;1.82;100.00;99417.41;5009810;28;20475;-80
2021/03/03 06:20:54;;;;;;;13.23;6.43;;;0.90;99.90;;;1.87;100.00;99428.25;5009346;28;20521;-80
2021/03/03 06:23:24;;;;;;;16.60;7.50;;;0.90;99.90;;;1.91;100.00;99421.94;5009067;28;20505;-79
2021/03/03 06:26:11;;;;;;;19.63;7.33;;;1.00;99.90;;;1.93;100.00;99420.13;5009229;28;20520;-79
2021/03/03 06:28:41;;;;;;;18.53;6.80;;;1.00;99.90;;;1.90;100.00;99417.75;5008928;28;20985;-79
2021/03/03 06:31:28;;;;;;;13.50;6.93;;;1.00;99.90;;;1.85;100.00;99422.34;5008935;28;20455;-80
2021/03/03 06:34:12;;;;;;;13.93;7.47;;;0.90;99.90;;;1.86;100.00;99424.00;5009302;28;20457;-79
2021/03/03 06:36:41;;;;;;;12.13;7.00;;;0.90;99.90;;;1.84;100.00;99426.69;5008793;28;20502;-79
2021/03/03 06:39:18;;;;;;;19.87;8.47;;;0.90;99.90;;;1.90;100.00;99426.31;5009221;28;20443;-80
2021/03/03 06:41:46;;;;;;;13.07;6.87;;;1.00;99.90;;;1.92;100.00;99419.28;5009496;28;20465;-79
2021/03/03 06:44:15;;;;;;;11.03;6.70;;;1.00;99.90;;;1.88;100.00;99422.16;5008861;28;20505;-79
2021/03/03 06:46:43;;;;;;;12.43;6.97;;;1.00;99.90;;;1.94;100.00;99419.19;5009132;28;20455;-79
2021/03/03 06:49:22;;;;;;;14.47;7.20;;;1.10;99.90;;;2.05;100.00;99429.63;5012285;28;20447;-80
2021/03/03 06:51:50;;;;;;;13.80;6.23;;;1.30;99.90;;;2.09;100.00;99430.25;5012160;28;20455;-79
2021/03/03 06:54:21;;;;;;;15.30;8.23;;;1.30;99.90;;;2.14;100.00;99431.63;5013238;28;20483;-80
2021/03/03 06:56:51;;;;;;;18.23;7.33;;;1.30;99.90;;;2.17;100.00;99434.00;5013431;28;20498;-80
2021/03/03 06:59:27;;;;;;;15.80;6.90;;;1.30;99.90;;;2.14;100.00;99431.63;5012768;28;20831;-80
2021/03/03 07:01:57;;;;;;;12.57;7.07;;;1.30;99.90;;;2.23;100.00;99435.34;5013543;28;20525;-80
2021/03/03 07:04:31;;;;;;;13.57;7.30;;;1.50;99.90;;;2.24;100.00;99424.09;5013279;28;20494;-80
2021/03/03 07:07:02;;;;;;;13.13;6.13;;;1.40;99.90;;;2.26;100.00;99423.06;5013062;28;20814;-80
2021/03/03 07:09:42;;;;;;;14.93;7.10;;;1.40;99.90;;;2.16;100.00;99429.75;5013350;28;20455;-80
2021/03/03 07:12:15;;;;;;;14.37;6.53;;;1.30;99.90;;;2.21;100.00;99432.06;5012607;28;20895;-80
2021/03/03 07:14:46;;;;;;;12.40;6.70;;;1.30;99.90;;;2.26;100.00;99435.13;5010715;28;20824;-80
2021/03/03 07:17:17;;;;;;;16.30;7.40;;;1.40;99.90;;;2.29;100.00;99438.34;5010526;28;20494;-80
2021/03/03 07:19:46;;;;;;;17.27;7.20;;;1.40;99.90;;;2.34;100.00;99433.72;5010511;28;20450;-80
2021/03/03 07:22:27;;;;;;;23.57;7.67;;;1.60;99.90;;;2.35;100.00;99434.56;5010656;28;20447;-80
2021/03/03 07:25:05;;;;;;;16.50;6.60;;;1.60;99.90;;;2.27;100.00;99442.78;5011746;28;20446;-80
2021/03/03 07:27:36;;;;;;;10.40;6.13;;;1.40;99.90;;;2.31;100.00;99441.66;5012335;28;20538;-79
2021/03/03 07:30:10;;;;;;;11.70;6.17;;;1.50;99.90;;;2.34;100.00;99445.78;5013003;28;20582;-80
2021/03/03 07:32:41;;;;;;;13.03;6.43;;;1.50;99.90;;;2.43;100.00;99442.63;5013193;28;20498;-80
2021/03/03 07:35:30;;;;;;;12.63;6.23;;;1.60;99.90;;;2.43;100.00;99445.22;5011538;28;20920;-80
2021/03/03 07:38:02;;;;;;;15.77;5.87;;;1.60;99.90;;;2.43;100.00;99447.78;5011951;28;20498;-80
2021/03/03 07:40:32;;;;;;;13.10;6.67;;;1.50;99.90;;;2.44;100.00;99446.84;5010346;28;20474;-80
2021/03/03 07:43:02;;;;;;;16.50;5.80;;;1.50;99.90;;;2.41;100.00;99455.63;5010626;28;20463;-79
2021/03/03 07:45:38;;;;;;;16.33;6.33;;;1.60;99.90;;;2.48;100.00;99450.88;5010556;28;20447;-80
2021/03/03 07:48:10;;;;;;;11.50;6.13;;;1.60;99.90;;;2.53;100.00;99441.09;5010327;28;20490;-80
2021/03/03 07:50:39;;;;;;;13.10;6.20;;;1.60;99.90;;;2.60;100.00;99444.09;5010039;28;20455;-79
2021/03/03 07:53:10;;;;;;;17.10;6.80;;;1.70;99.90;;;2.70;100.00;99447.69;5010171;28;20490;-80
2021/03/03 07:55:40;;;;;;;12.30;5.63;;;1.90;99.90;;;2.73;100.00;99443.16;5009840;28;20928;-80
2021/03/03 07:58:09;;;;;;;12.40;6.63;;;1.90;99.90;;;2.80;100.00;99448.72;5010381;28;20507;-80
2021/03/03 08:00:41;;;;;;;18.30;6.77;;;1.90;99.90;;;2.79;100.00;99447.91;5009363;28;21081;-80
2021/03/03 08:03:09;;;;;;;8.37;5.43;;;2.00;99.90;;;2.82;100.00;99447.69;5009822;28;20481;-80
2021/03/03 08:05:52;;;;;;;11.83;6.83;;;2.00;99.90;;;2.85;100.00;99444.06;5010605;28;20455;-80
2021/03/03 08:08:26;;;;;;;9.20;5.90;;;2.00;99.90;;;2.86;100.00;99449.13;5010181;28;20461;-80
2021/03/03 08:11:27;;;;;;;9.60;5.53;;;2.00;99.90;;;2.87;100.00;99440.47;5009776;28;20447;-80
2021/03/03 08:13:58;;;;;;;13.73;5.93;;;2.00;99.90;;;2.92;100.00;99442.72;5010843;28;20458;-80
2021/03/03 08:16:30;;;;;;;23.13;6.50;;;2.20;99.90;;;2.97;100.00;99444.06;5011294;28;20459;-79
2021/03/03 08:19:00;;;;;;;9.60;5.80;;;2.20;99.90;;;3.01;100.00;99439.53;5012055;28;20456;-80
2021/03/03 08:21:29;;;;;;;14.07;6.20;;;2.30;99.90;;;3.03;100.00;99437.66;5011986;28;20995;-80
2021/03/03 08:23:59;;;;;;;13.03;5.60;;;2.30;99.90;;;3.08;100.00;99434.75;5011257;28;21019;-80
2021/03/03 08:26:37;;;;;;;11.47;6.57;;;2.30;99.90;;;3.10;100.00;99427.72;5012238;28;20455;-80
2021/03/03 08:29:26;;;;;;;9.77;6.10;;;2.40;99.90;;;3.11;100.00;99427.63;5010763;28;20972;-80
2021/03/03 08:32:25;;;;;;;11.00;5.77;;;2.40;99.90;;;3.12;100.00;99423.28;5010437;28;20495;-80
2021/03/03 08:34:54;;;;;;;16.43;5.87;;;2.50;99.90;;;3.09;100.00;99419.13;5009399;28;20972;-80
2021/03/03 08:37:39;;;;;;;14.80;6.77;;;2.40;99.90;;;3.12;100.00;99418.13;5009294;28;20509;-80
2021/03/03 08:40:27;;;;;;;12.60;6.77;;;2.50;99.90;;;3.15;100.00;99413.56;5009351;28;20888;-80
2021/03/03 08:42:55;;;;;;;11.43;6.07;;;2.50;99.90;;;3.20;100.00;99418.41;5009738;28;20861;-80
2021/03/03 08:45:28;;;;;;;11.83;6.60;;;2.40;99.90;;;3.21;100.00;99420.88;5009361;28;20454;-80
2021/03/03 08:48:01;;;;;;;11.00;6.10;;;2.50;99.90;;;3.24;100.00;99428.41;5009517;28;20532;-80
2021/03/03 08:50:45;;;;;;;18.50;7.30;;;2.50;99.90;;;3.24;100.00;99420.66;5008782;28;20450;-80
2021/03/03 08:53:32;;;;;;;14.97;6.60;;;2.50;99.90;;;3.29;100.00;99422.94;5009006;28;20537;-80
2021/03/03 08:56:38;;;;;;;11.20;6.20;;;2.50;99.90;;;3.35;100.00;99420.75;5008623;28;20482;-79
2021/03/03 08:59:07;;;;;;;11.67;6.30;;;2.50;99.90;;;3.43;100.00;99413.28;5009041;28;21003;-80
2021/03/03 09:01:55;;;;;;;12.20;7.23;;;2.60;99.90;;;3.51;100.00;99410.13;5009274;28;20453;-80
2021/03/03 09:04:30;;;;;;;10.53;6.07;;;2.70;99.90;;;3.58;100.00;99405.34;5009232;28;20455;-80
2021/03/03 09:07:01;;;;;;;13.13;7.10;;;2.80;99.90;;;3.64;100.00;99404.94;5009077;28;20549;-80
2021/03/03 09:09:36;;;;;;;16.87;7.43;;;2.80;99.90;;;3.71;100.00;99394.03;5008940;28;20461;-80
2021/03/03 09:12:06;;;;;;;12.93;7.20;;;2.90;99.90;;;3.78;100.00;99397.00;5008542;28;20454;-79
2021/03/03 09:14:37;;;;;;;17.47;6.97;;;3.00;99.90;;;3.84;100.00;99397.41;5008704;28;20589;-80
2021/03/03 09:17:07;;;;;;;19.37;8.10;;;3.00;99.90;;;3.91;100.00;99393.41;5009273;28;20497;-80
2021/03/03 09:19:37;;;;;;;16.07;8.90;;;3.10;99.90;;;3.98;100.00;99384.28;5008790;28;20944;-80
2021/03/03 09:22:19;;;;;;;15.30;7.70;;;3.20;99.90;;;4.05;100.00;99385.47;5008205;28;20447;-80
2021/03/03 09:24:49;;;;;;;16.60;7.57;;;3.20;99.90;;;4.13;100.00;99381.50;5009048;28;20486;-80
2021/03/03 09:27:19;;;;;;;13.00;7.00;;;3.40;99.90;;;4.19;100.00;99381.03;5009327;28;21018;-82
2021/03/03 09:29:49;;;;;;;25.03;7.67;;;3.40;99.90;;;4.25;100.00;99380.56;5008883;28;20497;-80
2021/03/03 09:32:21;;;;;;;10.77;7.00;;;3.50;99.90;;;4.31;100.00;99375.75;5009480;28;20465;-80
2021/03/03 09:34:55;;;;;;;18.20;8.13;;;3.60;99.90;;;4.36;100.00;99373.66;5010660;28;20940;-80
2021/03/03 09:37:25;;;;;;;12.73;6.10;;;3.70;99.90;;;4.45;100.00;99372.97;5008877;28;20961;-80
2021/03/03 09:39:55;;;;;;;21.20;8.10;;;3.80;99.90;;;4.52;100.00;99370.72;5008750;28;20459;-79
2021/03/03 09:42:24;;;;;;;20.67;6.80;;;3.90;99.90;;;4.57;100.00;99359.09;5008618;28;20459;-79
2021/03/03 09:44:55;;;;;;;14.17;7.30;;;3.90;99.90;;;4.66;100.00;99365.34;5009963;28;20457;-80
2021/03/03 09:47:26;;;;;;;15.00;7.60;;;4.00;99.90;;;4.74;100.00;99354.38;5008274;28;20541;-79
2021/03/03 09:50:02;;;;;;;14.50;8.30;;;4.10;99.90;;;4.81;100.00;99352.97;5008411;28;20943;-79
2021/03/03 09:52:40;;;;;;;19.97;8.90;;;4.20;99.90;;;4.89;100.00;99353.22;5009111;28;20466;-80
2021/03/03 09:55:10;;;;;;;22.53;8.80;;;4.30;99.90;;;4.96;100.00;99351.78;5007837;28;20477;-80
2021/03/03 09:57:39;;;;;;;16.13;8.30;;;4.40;99.90;;;5.05;100.00;99351.06;5007894;28;20932;-79
2021/03/03 10:00:10;;;;;;;12.80;7.50;;;4.40;99.90;;;5.14;100.00;99345.16;5008509;28;20505;-79
2021/03/03 10:02:46;;;;;;;15.40;9.93;;;4.50;99.90;;;5.23;100.00;99344.44;5009053;28;20455;-80
2021/03/03 10:05:18;;;;;;;28.50;9.70;;;4.70;99.90;;;5.31;100.00;99344.63;5008496;28;20537;-79
2021/03/03 10:07:50;;;;;;;22.07;10.10;;;4.80;99.90;;;5.41;100.00;99336.97;5008354;28;20455;-80
2021/03/03 10:10:20;;;;;;;18.13;8.97;;;4.80;99.90;;;5.48;100.00;99336.34;5008708;28;20466;-80
2021/03/03 10:12:48;;;;;;;18.53;8.67;;;5.00;99.90;;;5.58;100.00;99333.84;5008603;28;20451;-80
2021/03/03 10:15:21;;;;;;;17.73;9.00;;;5.10;99.90;;;5.69;100.00;99336.41;5007925;28;20824;-80
2021/03/03 10:17:54;;;;;;;20.97;9.50;;;5.20;99.90;;;5.78;100.00;99337.41;5008180;28;20498;-79
2021/03/03 10:20:36;;;;;;;16.37;9.27;;;5.30;99.90;;;5.88;100.00;99330.56;5008600;28;20450;-80
2021/03/03 10:23:11;;;;;;;26.13;9.60;;;5.40;99.90;;;5.98;100.00;99334.03;5010249;28;20963;-80
2021/03/03 10:25:41;;;;;;;20.80;9.23;;;5.50;99.90;;;6.11;100.00;99339.88;5012468;28;20977;-79
2021/03/03 10:28:13;;;;;;;19.70;10.10;;;5.60;99.90;;;6.23;100.00;99338.03;5012310;28;20455;-80
2021/03/03 10:30:43;;;;;;;16.63;9.70;;;5.80;99.90;;;6.33;100.00;99342.34;5011931;28;20458;-80
2021/03/03 10:33:24;;;;;;;25.50;8.83;;;5.90;99.90;;;6.44;100.00;99339.66;5011968;28;20458;-80
2021/03/03 10:35:55;;;;;;;18.60;9.30;;;6.00;99.90;;;6.53;100.00;99338.88;5011732;28;20455;-79